createdAt,value
2023-05-10T00:00:25.751Z,42.40
2023-05-10T00:01:25.778Z,42.40
2023-05-10T00:02:25.860Z,42.39
2023-05-10T00:03:25.930Z,42.39
2023-05-10T00:04:25.757Z,42.39
2023-05-10T00:05:25.759Z,42.39
2023-05-10T00:06:25.759Z,42.39
2023-05-10T00:07:25.764Z,42.39
2023-05-10T00:08:25.790Z,42.37
2023-05-10T00:09:25.762Z,42.40
2023-05-10T00:10:25.743Z,42.40
2023-05-10T00:11:25.743Z,42.40
2023-05-10T00:12:25.731Z,42.38
2023-05-10T00:13:25.852Z,42.37
2023-05-10T00:14:25.696Z,42.39
2023-05-10T00:15:25.705Z,42.37
2023-05-10T00:16:25.766Z,42.37
2023-05-10T00:17:25.701Z,42.36
2023-05-10T00:18:25.676Z,42.38
2023-05-10T00:19:25.671Z,42.38
2023-05-10T00:20:25.661Z,42.40
2023-05-10T00:21:25.640Z,42.36
2023-05-10T00:22:25.623Z,42.39
2023-05-10T00:23:25.618Z,42.40
2023-05-10T00:24:25.611Z,42.39
2023-05-10T00:25:25.623Z,42.38
2023-05-10T00:26:25.615Z,42.39
2023-05-10T00:27:25.600Z,42.39
2023-05-10T00:28:25.613Z,42.38
2023-05-10T00:29:25.624Z,42.36
2023-05-10T00:30:25.593Z,42.37
2023-05-10T00:31:25.616Z,42.37
2023-05-10T00:32:25.644Z,42.40
2023-05-10T00:33:25.633Z,42.38
2023-05-10T00:34:25.633Z,42.38
2023-05-10T00:35:25.625Z,42.34
2023-05-10T00:36:25.613Z,42.37
2023-05-10T00:37:25.621Z,42.39
2023-05-10T00:38:25.639Z,42.39
2023-05-10T00:39:25.746Z,42.39
2023-05-10T00:40:25.640Z,42.38
2023-05-10T00:41:25.644Z,42.36
2023-05-10T00:42:25.654Z,42.38
2023-05-10T00:43:25.665Z,42.36
2023-05-10T00:44:25.661Z,42.36
2023-05-10T00:45:25.679Z,42.38
2023-05-10T00:46:25.761Z,42.37
2023-05-10T00:47:25.746Z,42.36
2023-05-10T00:48:25.710Z,42.36
2023-05-10T00:49:25.712Z,42.37
2023-05-10T00:50:25.737Z,42.36
2023-05-10T00:51:25.765Z,42.38
2023-05-10T00:52:25.787Z,42.36
2023-05-10T00:53:25.790Z,42.38
2023-05-10T00:54:25.778Z,42.36
2023-05-10T00:55:25.771Z,42.36
2023-05-10T00:56:25.776Z,42.36
2023-05-10T00:57:25.778Z,42.37
2023-05-10T00:58:25.785Z,42.35
2023-05-10T00:59:25.790Z,42.36
2023-05-10T01:00:25.788Z,42.34
2023-05-10T01:01:25.802Z,42.36
2023-05-10T01:02:25.862Z,42.34
2023-05-10T01:03:25.878Z,42.36
2023-05-10T01:04:25.866Z,42.37
2023-05-10T01:05:25.913Z,42.37
2023-05-10T01:06:25.921Z,42.35
2023-05-10T01:07:25.899Z,42.36
2023-05-10T01:08:25.920Z,42.33
2023-05-10T01:09:25.924Z,42.35
2023-05-10T01:10:25.957Z,42.34
2023-05-10T01:11:25.966Z,42.34
2023-05-10T01:12:26.066Z,42.35
2023-05-10T01:13:26.167Z,42.32
2023-05-10T01:14:26.024Z,42.33
2023-05-10T01:15:26.023Z,42.35
2023-05-10T01:16:26.136Z,42.35
2023-05-10T01:17:26.146Z,42.33
2023-05-10T01:18:26.075Z,42.34
2023-05-10T01:19:26.082Z,42.36
2023-05-10T01:20:26.081Z,42.33
2023-05-10T01:21:26.081Z,42.35
2023-05-10T01:22:26.091Z,42.33
2023-05-10T01:23:26.146Z,42.33
2023-05-10T01:24:26.086Z,42.32
2023-05-10T01:25:26.078Z,42.34
2023-05-10T01:26:26.089Z,42.34
2023-05-10T01:27:26.089Z,42.32
2023-05-10T01:28:26.129Z,42.33
2023-05-10T01:29:26.118Z,42.33
2023-05-10T01:30:26.327Z,42.34
2023-05-10T01:31:26.132Z,42.33
2023-05-10T01:32:26.159Z,42.34
2023-05-10T01:33:26.117Z,42.34
2023-05-10T01:34:26.101Z,42.33
2023-05-10T01:35:26.130Z,42.32
2023-05-10T01:36:26.114Z,42.32
2023-05-10T01:37:26.119Z,42.33
2023-05-10T01:38:26.121Z,42.31
2023-05-10T01:39:26.116Z,42.33
2023-05-10T01:40:26.162Z,42.32
2023-05-10T01:41:26.197Z,42.32
2023-05-10T01:42:26.182Z,42.30
2023-05-10T01:43:26.184Z,42.32
2023-05-10T01:44:26.180Z,42.31
2023-05-10T01:45:26.191Z,42.32
2023-05-10T01:46:26.208Z,42.32
2023-05-10T01:47:26.239Z,42.30
2023-05-10T01:48:26.181Z,42.31
2023-05-10T01:49:26.189Z,42.31
2023-05-10T01:50:26.187Z,42.32
2023-05-10T01:51:26.227Z,42.31
2023-05-10T01:52:26.211Z,42.31
2023-05-10T01:53:26.226Z,42.30
2023-05-10T01:54:26.221Z,42.30
2023-05-10T01:55:26.228Z,42.30
2023-05-10T01:56:26.230Z,42.32
2023-05-10T01:57:26.257Z,42.29
2023-05-10T01:58:26.302Z,42.32
2023-05-10T01:59:26.233Z,42.32
2023-05-10T02:00:26.241Z,42.28
2023-05-10T02:01:26.231Z,42.31
2023-05-10T02:02:26.294Z,42.27
2023-05-10T02:03:26.289Z,42.30
2023-05-10T02:04:26.233Z,42.32
2023-05-10T02:05:26.219Z,42.28
2023-05-10T02:06:26.244Z,42.30
2023-05-10T02:07:26.220Z,42.27
2023-05-10T02:08:26.217Z,42.28
2023-05-10T02:09:26.224Z,42.29
2023-05-10T02:10:26.212Z,42.26
2023-05-10T02:11:26.213Z,42.28
2023-05-10T02:12:26.258Z,42.28
2023-05-10T02:13:26.382Z,42.29
2023-05-10T02:14:26.264Z,42.28
2023-05-10T02:15:26.246Z,42.26
2023-05-10T02:16:26.288Z,42.28
2023-05-10T02:17:26.326Z,42.26
2023-05-10T02:18:26.307Z,42.27
2023-05-10T02:19:26.308Z,42.29
2023-05-10T02:20:26.317Z,42.28
2023-05-10T02:21:26.324Z,42.26
2023-05-10T02:22:26.329Z,42.27
2023-05-10T02:23:26.307Z,42.28
2023-05-10T02:24:26.314Z,42.30
2023-05-10T02:25:26.304Z,42.27
2023-05-10T02:26:26.285Z,42.28
2023-05-10T02:27:26.315Z,42.25
2023-05-10T02:28:26.325Z,42.25
2023-05-10T02:29:26.314Z,42.27
2023-05-10T02:30:26.304Z,42.25
2023-05-10T02:31:26.332Z,42.25
2023-05-10T02:32:26.327Z,42.24
2023-05-10T02:33:26.312Z,42.24
2023-05-10T02:34:26.327Z,42.26
2023-05-10T02:35:26.328Z,42.25
2023-05-10T02:36:26.339Z,42.26
2023-05-10T02:37:26.347Z,42.28
2023-05-10T02:38:26.351Z,42.27
2023-05-10T02:39:26.356Z,42.26
2023-05-10T02:40:28.673Z,42.27
2023-05-10T02:41:26.489Z,42.24
2023-05-10T02:42:26.501Z,42.24
2023-05-10T02:43:26.521Z,42.27
2023-05-10T02:44:26.509Z,42.27
2023-05-10T02:45:26.499Z,42.25
2023-05-10T02:46:26.527Z,42.25
2023-05-10T02:47:26.502Z,42.24
2023-05-10T02:48:26.562Z,42.25
2023-05-10T02:49:26.520Z,42.22
2023-05-10T02:50:26.527Z,42.25
2023-05-10T02:51:26.535Z,42.25
2023-05-10T02:52:26.525Z,42.23
2023-05-10T02:53:26.520Z,42.22
2023-05-10T02:54:26.519Z,42.23
2023-05-10T02:55:26.540Z,42.23
2023-05-10T02:56:26.536Z,42.24
2023-05-10T02:57:26.569Z,42.24
2023-05-10T02:58:26.541Z,42.23
2023-05-10T02:59:26.539Z,42.21
2023-05-10T03:00:26.533Z,42.22
2023-05-10T03:01:26.577Z,42.24
2023-05-10T03:02:26.574Z,42.23
2023-05-10T03:03:26.552Z,42.21
2023-05-10T03:04:26.600Z,42.24
2023-05-10T03:05:26.570Z,42.24
2023-05-10T03:06:26.587Z,42.21
2023-05-10T03:07:26.610Z,42.22
2023-05-10T03:08:26.590Z,42.20
2023-05-10T03:09:26.634Z,42.24
2023-05-10T03:10:26.673Z,42.22
2023-05-10T03:11:26.635Z,42.23
2023-05-10T03:12:26.656Z,42.23
2023-05-10T03:13:26.906Z,42.22
2023-05-10T03:14:26.693Z,42.22
2023-05-10T03:15:26.688Z,42.22
2023-05-10T03:16:26.808Z,42.18
2023-05-10T03:17:26.773Z,42.21
2023-05-10T03:18:26.703Z,42.20
2023-05-10T03:19:26.807Z,42.22
2023-05-10T03:20:26.733Z,42.19
2023-05-10T03:21:26.727Z,42.20
2023-05-10T03:22:26.735Z,42.21
2023-05-10T03:23:26.735Z,42.21
2023-05-10T03:24:26.766Z,42.23
2023-05-10T03:25:26.748Z,42.20
2023-05-10T03:26:26.755Z,42.19
2023-05-10T03:27:26.760Z,42.19
2023-05-10T03:28:26.754Z,42.19
2023-05-10T03:29:26.769Z,42.20
2023-05-10T03:30:26.748Z,42.21
2023-05-10T03:31:26.769Z,42.20
2023-05-10T03:32:26.783Z,42.19
2023-05-10T03:33:27.332Z,42.19
2023-05-10T03:34:26.744Z,42.20
2023-05-10T03:35:26.740Z,42.21
2023-05-10T03:36:26.728Z,42.18
2023-05-10T03:37:26.736Z,42.22
2023-05-10T03:38:27.813Z,42.20
2023-05-10T03:39:26.714Z,42.19
2023-05-10T03:40:26.694Z,42.22
2023-05-10T03:41:26.686Z,42.20
2023-05-10T03:42:26.685Z,42.19
2023-05-10T03:43:26.663Z,42.19
2023-05-10T03:44:26.662Z,42.19
2023-05-10T03:45:26.646Z,42.20
2023-05-10T03:46:26.674Z,42.19
2023-05-10T03:47:26.698Z,42.17
2023-05-10T03:48:26.610Z,42.17
2023-05-10T03:49:26.606Z,42.17
2023-05-10T03:50:26.577Z,42.17
2023-05-10T03:51:26.590Z,42.18
2023-05-10T03:52:26.590Z,42.17
2023-05-10T03:53:26.532Z,42.18
2023-05-10T03:54:26.520Z,42.16
2023-05-10T03:55:26.507Z,42.16
2023-05-10T03:56:26.501Z,42.14
2023-05-10T03:57:26.514Z,42.17
2023-05-10T03:58:26.481Z,42.17
2023-05-10T03:59:26.460Z,42.16
2023-05-10T04:00:26.447Z,42.15
2023-05-10T04:01:26.459Z,42.17
2023-05-10T04:02:26.532Z,42.18
2023-05-10T04:03:26.479Z,42.18
2023-05-10T04:04:26.402Z,42.16
2023-05-10T04:05:26.390Z,42.16
2023-05-10T04:06:26.429Z,42.15
2023-05-10T04:07:26.357Z,42.16
2023-05-10T04:08:26.343Z,42.15
2023-05-10T04:09:26.336Z,42.17
2023-05-10T04:10:26.328Z,42.16
2023-05-10T04:11:26.306Z,42.16
2023-05-10T04:12:26.282Z,42.14
2023-05-10T04:13:26.299Z,42.14
2023-05-10T04:14:26.256Z,42.15
2023-05-10T04:15:26.228Z,42.16
2023-05-10T04:16:26.244Z,42.14
2023-05-10T04:17:26.231Z,42.12
2023-05-10T04:18:26.252Z,42.14
2023-05-10T04:19:26.185Z,42.14
2023-05-10T04:20:26.173Z,42.14
2023-05-10T04:21:26.173Z,42.13
2023-05-10T04:22:26.161Z,42.16
2023-05-10T04:23:26.123Z,42.14
2023-05-10T04:24:26.112Z,42.14
2023-05-10T04:25:26.099Z,42.13
2023-05-10T04:26:26.077Z,42.12
2023-05-10T04:27:26.068Z,42.13
2023-05-10T04:28:26.055Z,42.11
2023-05-10T04:29:26.052Z,42.12
2023-05-10T04:30:26.034Z,42.15
2023-05-10T04:31:26.071Z,42.13
2023-05-10T04:32:26.038Z,42.14
2023-05-10T04:33:25.995Z,42.13
2023-05-10T04:34:25.984Z,42.13
2023-05-10T04:35:25.970Z,42.13
2023-05-10T04:36:25.962Z,42.14
2023-05-10T04:37:25.938Z,42.12
2023-05-10T04:38:25.930Z,42.13
2023-05-10T04:39:25.921Z,42.10
2023-05-10T04:40:25.940Z,42.10
2023-05-10T04:41:25.899Z,42.10
2023-05-10T04:42:25.888Z,42.15
2023-05-10T04:43:25.873Z,42.13
2023-05-10T04:44:25.871Z,42.13
2023-05-10T04:45:25.855Z,42.13
2023-05-10T04:46:25.933Z,42.11
2023-05-10T04:47:25.894Z,42.12
2023-05-10T04:48:25.828Z,42.12
2023-05-10T04:49:25.815Z,42.11
2023-05-10T04:50:25.795Z,42.11
2023-05-10T04:51:25.784Z,42.09
2023-05-10T04:52:25.777Z,42.13
2023-05-10T04:53:25.794Z,42.11
2023-05-10T04:54:25.772Z,42.10
2023-05-10T04:55:25.766Z,42.13
2023-05-10T04:56:25.735Z,42.09
2023-05-10T04:57:25.754Z,42.09
2023-05-10T04:58:25.730Z,42.12
2023-05-10T04:59:25.718Z,42.09
2023-05-10T05:00:25.703Z,42.09
2023-05-10T05:01:25.746Z,42.11
2023-05-10T05:02:25.766Z,42.07
2023-05-10T05:03:25.846Z,42.09
2023-05-10T05:04:25.665Z,42.11
2023-05-10T05:05:25.674Z,42.08
2023-05-10T05:06:25.668Z,42.10
2023-05-10T05:07:25.665Z,42.10
2023-05-10T05:08:25.639Z,42.10
2023-05-10T05:09:25.622Z,42.08
2023-05-10T05:10:25.627Z,42.10
2023-05-10T05:11:25.614Z,42.10
2023-05-10T05:12:25.595Z,42.06
2023-05-10T05:13:25.709Z,42.08
2023-05-10T05:14:25.575Z,42.08
2023-05-10T05:15:25.566Z,42.10
2023-05-10T05:16:25.584Z,42.08
2023-05-10T05:17:25.581Z,42.07
2023-05-10T05:18:25.529Z,42.11
2023-05-10T05:19:25.523Z,42.31
2023-05-10T05:20:25.510Z,42.20
2023-05-10T05:21:25.494Z,42.17
2023-05-10T05:22:25.490Z,42.61
2023-05-10T05:23:25.477Z,42.62
2023-05-10T05:24:25.472Z,42.76
2023-05-10T05:25:25.465Z,42.95
2023-05-10T05:26:25.451Z,42.93
2023-05-10T05:27:25.437Z,43.96
2023-05-10T05:28:25.453Z,43.68
2023-05-10T05:29:25.420Z,44.24
2023-05-10T05:30:25.428Z,44.33
2023-05-10T05:31:25.388Z,44.00
2023-05-10T05:32:25.981Z,44.21
2023-05-10T05:33:25.377Z,44.32
2023-05-10T05:34:25.402Z,44.27
2023-05-10T05:35:25.353Z,44.31
2023-05-10T05:36:25.893Z,44.18
2023-05-10T05:37:25.312Z,44.09
2023-05-10T05:38:25.311Z,44.09
2023-05-10T05:39:25.303Z,44.14
2023-05-10T05:40:25.283Z,44.13
2023-05-10T05:41:25.276Z,44.11
2023-05-10T05:42:25.315Z,44.17
2023-05-10T05:43:25.280Z,44.14
2023-05-10T05:44:25.277Z,44.20
2023-05-10T05:45:25.254Z,44.18
2023-05-10T05:46:25.937Z,44.22
2023-05-10T05:47:25.283Z,44.25
2023-05-10T05:48:25.226Z,44.27
2023-05-10T05:49:25.222Z,44.27
2023-05-10T05:50:25.221Z,44.39
2023-05-10T05:51:25.214Z,44.40
2023-05-10T05:52:25.212Z,44.45
2023-05-10T05:53:25.224Z,44.40
2023-05-10T05:54:25.202Z,44.36
2023-05-10T05:55:25.184Z,44.37
2023-05-10T05:56:25.213Z,44.45
2023-05-10T05:57:25.172Z,44.47
2023-05-10T05:58:25.189Z,44.49
2023-05-10T05:59:25.169Z,44.52
2023-05-10T06:00:25.173Z,44.48
2023-05-10T06:01:25.147Z,44.59
2023-05-10T06:02:25.293Z,44.63
2023-05-10T06:03:25.286Z,44.64
2023-05-10T06:04:25.190Z,44.64
2023-05-10T06:05:25.114Z,44.72
2023-05-10T06:06:25.108Z,44.70
2023-05-10T06:07:25.104Z,44.73
2023-05-10T06:08:25.090Z,44.75
2023-05-10T06:09:25.078Z,44.79
2023-05-10T06:10:25.059Z,44.79
2023-05-10T06:11:25.899Z,44.80
2023-05-10T06:12:25.937Z,44.81
2023-05-10T06:13:25.115Z,44.88
2023-05-10T06:14:25.018Z,44.86
2023-05-10T06:15:25.053Z,44.89
2023-05-10T06:16:25.022Z,44.84
2023-05-10T06:17:24.998Z,44.88
2023-05-10T06:18:24.976Z,44.85
2023-05-10T06:19:24.974Z,44.98
2023-05-10T06:20:24.957Z,44.94
2023-05-10T06:21:24.944Z,44.90
2023-05-10T06:22:24.939Z,45.25
2023-05-10T06:23:24.920Z,45.44
2023-05-10T06:24:24.917Z,45.59
2023-05-10T06:25:24.899Z,45.70
2023-05-10T06:26:24.913Z,46.18
2023-05-10T06:27:24.939Z,46.47
2023-05-10T06:28:24.996Z,46.91
2023-05-10T06:29:25.021Z,46.61
2023-05-10T06:30:25.065Z,46.86
2023-05-10T06:31:25.137Z,47.05
2023-05-10T06:32:25.160Z,47.20
2023-05-10T06:33:25.189Z,47.54
2023-05-10T06:34:25.236Z,47.69
2023-05-10T06:35:25.291Z,47.90
2023-05-10T06:36:25.333Z,48.37
2023-05-10T06:37:25.387Z,48.02
2023-05-10T06:38:25.910Z,48.39
2023-05-10T06:39:25.486Z,48.43
2023-05-10T06:40:25.501Z,48.62
2023-05-10T06:41:25.543Z,48.70
2023-05-10T06:42:25.571Z,48.84
2023-05-10T06:43:25.629Z,48.86
2023-05-10T06:44:25.644Z,48.93
2023-05-10T06:45:25.665Z,49.00
2023-05-10T06:46:25.746Z,49.35
2023-05-10T06:47:25.770Z,49.33
2023-05-10T06:48:25.783Z,49.53
2023-05-10T06:49:25.805Z,49.57
2023-05-10T06:50:25.934Z,49.74
2023-05-10T06:51:25.884Z,49.79
2023-05-10T06:52:25.909Z,49.76
2023-05-10T06:53:25.936Z,49.96
2023-05-10T06:54:25.972Z,49.94
2023-05-10T06:55:25.981Z,50.24
2023-05-10T06:56:26.010Z,50.30
2023-05-10T06:57:31.597Z,50.30
2023-05-10T06:58:27.032Z,50.28
2023-05-10T06:59:26.042Z,50.71
2023-05-10T07:00:26.061Z,50.67
2023-05-10T07:01:26.134Z,50.83
2023-05-10T07:02:25.993Z,50.77
2023-05-10T07:03:25.930Z,50.77
2023-05-10T07:04:26.223Z,50.85
2023-05-10T07:05:26.161Z,50.90
2023-05-10T07:06:33.321Z,50.98
2023-05-10T07:07:26.878Z,51.16
2023-05-10T07:08:25.851Z,51.16
2023-05-10T07:09:25.894Z,51.27
2023-05-10T07:10:25.832Z,51.35
2023-05-10T07:11:25.807Z,51.46
2023-05-10T07:12:25.806Z,51.65
2023-05-10T07:13:25.853Z,51.63
2023-05-10T07:14:25.767Z,51.77
2023-05-10T07:15:25.848Z,51.83
2023-05-10T07:16:25.753Z,52.18
2023-05-10T07:17:25.763Z,52.04
2023-05-10T07:18:25.690Z,52.57
2023-05-10T07:19:25.630Z,52.14
2023-05-10T07:20:25.663Z,52.50
2023-05-10T07:21:25.727Z,52.04
2023-05-10T07:22:25.636Z,52.00
2023-05-10T07:23:25.657Z,51.84
2023-05-10T07:24:25.659Z,51.74
2023-05-10T07:25:25.684Z,51.80
2023-05-10T07:26:25.700Z,51.91
2023-05-10T07:27:25.731Z,51.89
2023-05-10T07:28:25.780Z,51.77
2023-05-10T07:29:25.776Z,51.63
2023-05-10T07:30:25.830Z,51.57
2023-05-10T07:31:25.842Z,51.68
2023-05-10T07:32:25.978Z,51.45
2023-05-10T07:33:25.878Z,51.52
2023-05-10T07:34:25.952Z,51.31
2023-05-10T07:35:25.951Z,51.41
2023-05-10T07:36:25.994Z,51.11
2023-05-10T07:37:26.013Z,51.10
2023-05-10T07:38:26.052Z,51.10
2023-05-10T07:39:28.047Z,51.39
2023-05-10T07:40:26.125Z,51.55
2023-05-10T07:41:26.160Z,51.29
2023-05-10T07:42:26.194Z,51.54
2023-05-10T07:43:26.243Z,51.57
2023-05-10T07:44:26.320Z,51.62
2023-05-10T07:45:26.302Z,51.74
2023-05-10T07:46:26.476Z,51.62
2023-05-10T07:47:26.414Z,51.54
2023-05-10T07:48:26.417Z,51.58
2023-05-10T07:49:26.472Z,51.52
2023-05-10T07:50:26.503Z,51.56
2023-05-10T07:51:26.534Z,51.64
2023-05-10T07:52:26.575Z,51.59
2023-05-10T07:53:26.619Z,51.58
2023-05-10T07:54:26.674Z,51.53
2023-05-10T07:55:26.703Z,51.58
2023-05-10T07:56:26.760Z,51.57
2023-05-10T07:57:26.802Z,51.54
2023-05-10T07:58:26.850Z,51.48
2023-05-10T07:59:26.871Z,51.56
2023-05-10T08:00:26.935Z,51.55
2023-05-10T08:01:26.966Z,51.49
2023-05-10T08:02:27.088Z,51.43
2023-05-10T08:03:27.191Z,51.42
2023-05-10T08:04:27.136Z,51.42
2023-05-10T08:05:27.136Z,51.53
2023-05-10T08:06:27.167Z,51.56
2023-05-10T08:07:27.255Z,51.50
2023-05-10T08:08:27.266Z,51.57
2023-05-10T08:09:27.309Z,51.65
2023-05-10T08:10:27.369Z,51.63
2023-05-10T08:11:27.404Z,51.61
2023-05-10T08:12:27.440Z,51.77
2023-05-10T08:13:27.492Z,48.53
2023-05-10T08:14:27.518Z,46.69
2023-05-10T08:15:27.545Z,45.17
2023-05-10T08:16:27.636Z,44.64
2023-05-10T08:17:27.554Z,44.32
2023-05-10T08:18:27.617Z,44.25
2023-05-10T08:19:27.641Z,43.39
2023-05-10T08:20:27.689Z,42.93
2023-05-10T08:21:27.729Z,42.50
2023-05-10T08:22:27.801Z,42.58
2023-05-10T08:23:27.844Z,41.85
2023-05-10T08:24:27.841Z,41.42
2023-05-10T08:25:27.850Z,41.11
2023-05-10T08:26:27.859Z,41.39
2023-05-10T08:27:27.876Z,41.84
2023-05-10T08:28:27.905Z,42.31
2023-05-10T08:29:28.516Z,42.16
2023-05-10T08:30:28.161Z,42.34
2023-05-10T08:31:28.216Z,42.75
2023-05-10T08:32:28.246Z,43.38
2023-05-10T08:33:28.270Z,44.20
2023-05-10T08:34:28.289Z,43.08
2023-05-10T08:35:28.295Z,42.76
2023-05-10T08:36:28.281Z,42.83
2023-05-10T08:37:28.265Z,42.93
2023-05-10T08:38:28.316Z,43.07
2023-05-10T08:39:30.750Z,43.12
2023-05-10T08:40:28.300Z,43.11
2023-05-10T08:41:28.286Z,43.19
2023-05-10T08:42:28.264Z,43.27
2023-05-10T08:43:28.288Z,43.33
2023-05-10T08:44:28.231Z,43.45
2023-05-10T08:45:28.210Z,43.59
2023-05-10T08:46:28.196Z,43.75
2023-05-10T08:47:29.083Z,43.73
2023-05-10T08:48:28.150Z,43.97
2023-05-10T08:49:28.133Z,43.95
2023-05-10T08:50:28.142Z,44.16
2023-05-10T08:51:28.095Z,44.13
2023-05-10T08:52:28.060Z,44.15
2023-05-10T08:53:28.043Z,44.33
2023-05-10T08:54:28.068Z,44.47
2023-05-10T08:55:28.152Z,44.42
2023-05-10T08:56:27.964Z,44.47
2023-05-10T08:57:27.947Z,44.79
2023-05-10T08:58:27.940Z,44.91
2023-05-10T08:59:27.906Z,44.93
2023-05-10T09:00:27.919Z,45.35
2023-05-10T09:01:27.914Z,45.16
2023-05-10T09:02:27.853Z,45.32
2023-05-10T09:03:27.811Z,45.09
2023-05-10T09:04:27.918Z,45.31
2023-05-10T09:05:27.823Z,45.52
2023-05-10T09:06:27.746Z,45.92
2023-05-10T09:07:27.712Z,45.66
2023-05-10T09:08:27.681Z,45.67
2023-05-10T09:09:27.661Z,45.82
2023-05-10T09:10:27.676Z,45.91
2023-05-10T09:11:27.600Z,46.01
2023-05-10T09:12:27.578Z,46.07
2023-05-10T09:13:27.541Z,46.11
2023-05-10T09:14:27.521Z,46.13
2023-05-10T09:15:27.491Z,46.14
2023-05-10T09:16:27.493Z,46.32
2023-05-10T09:17:27.507Z,45.29
2023-05-10T09:18:28.146Z,45.01
2023-05-10T09:19:27.380Z,44.59
2023-05-10T09:20:27.356Z,43.78
2023-05-10T09:21:27.320Z,45.17
2023-05-10T09:22:27.299Z,44.41
2023-05-10T09:23:27.280Z,45.31
2023-05-10T09:24:27.261Z,46.02
2023-05-10T09:25:27.252Z,45.58
2023-05-10T09:26:27.218Z,46.44
2023-05-10T09:27:27.200Z,46.45
2023-05-10T09:28:27.193Z,46.04
2023-05-10T09:29:27.149Z,45.92
2023-05-10T09:30:27.142Z,46.07
2023-05-10T09:31:27.285Z,46.21
2023-05-10T09:32:27.118Z,46.35
2023-05-10T09:33:27.059Z,46.27
2023-05-10T09:34:27.034Z,46.13
2023-05-10T09:35:29.481Z,46.34
2023-05-10T09:36:26.982Z,46.61
2023-05-10T09:37:26.952Z,46.12
2023-05-10T09:38:26.923Z,46.53
2023-05-10T09:39:26.899Z,46.32
2023-05-10T09:40:26.866Z,46.55
2023-05-10T09:41:26.827Z,46.71
2023-05-10T09:42:26.803Z,46.84
2023-05-10T09:43:27.819Z,46.82
2023-05-10T09:44:26.742Z,46.85
2023-05-10T09:45:26.701Z,46.82
2023-05-10T09:46:26.705Z,47.30
2023-05-10T09:47:26.665Z,47.51
2023-05-10T09:48:26.613Z,47.42
2023-05-10T09:49:26.584Z,47.55
2023-05-10T09:50:26.606Z,47.47
2023-05-10T09:51:26.521Z,47.46
2023-05-10T09:52:26.613Z,47.48
2023-05-10T09:53:26.575Z,48.28
2023-05-10T09:54:26.598Z,47.78
2023-05-10T09:55:26.624Z,48.42
2023-05-10T09:56:26.643Z,48.53
2023-05-10T09:57:26.668Z,48.34
2023-05-10T09:58:26.702Z,48.33
2023-05-10T09:59:26.671Z,48.47
2023-05-10T10:00:26.694Z,48.61
2023-05-10T10:01:26.733Z,49.43
2023-05-10T10:02:26.723Z,49.05
2023-05-10T10:03:28.890Z,49.82
2023-05-10T10:04:26.651Z,49.96
2023-05-10T10:05:26.578Z,49.26
2023-05-10T10:06:30.424Z,49.13
2023-05-10T10:07:26.491Z,49.28
2023-05-10T10:08:26.455Z,49.41
2023-05-10T10:09:26.399Z,49.93
2023-05-10T10:10:26.381Z,49.46
2023-05-10T10:11:26.324Z,49.08
2023-05-10T10:12:26.294Z,49.11
2023-05-10T10:13:26.275Z,48.62
2023-05-10T10:14:26.198Z,48.78
2023-05-10T10:15:26.174Z,48.65
2023-05-10T10:16:26.222Z,48.73
2023-05-10T10:17:26.138Z,48.88
2023-05-10T10:18:26.142Z,49.13
2023-05-10T10:19:26.064Z,49.59
2023-05-10T10:20:26.020Z,49.76
2023-05-10T10:21:26.004Z,49.25
2023-05-10T10:22:25.952Z,49.08
2023-05-10T10:23:25.934Z,49.37
2023-05-10T10:24:25.897Z,49.39
2023-05-10T10:25:25.870Z,49.58
2023-05-10T10:26:25.833Z,49.60
2023-05-10T10:27:25.849Z,49.61
2023-05-10T10:28:28.131Z,49.59
2023-05-10T10:29:25.992Z,49.82
2023-05-10T10:30:26.021Z,49.71
2023-05-10T10:31:26.080Z,49.79
2023-05-10T10:32:26.083Z,49.97
2023-05-10T10:33:28.906Z,49.87
2023-05-10T10:34:26.057Z,49.97
2023-05-10T10:35:26.023Z,50.00
2023-05-10T10:36:26.008Z,49.87
2023-05-10T10:37:25.981Z,50.00
2023-05-10T10:38:25.956Z,50.06
2023-05-10T10:39:25.937Z,50.10
2023-05-10T10:40:25.909Z,50.09
2023-05-10T10:41:25.907Z,50.15
2023-05-10T10:42:25.880Z,50.29
2023-05-10T10:43:25.833Z,50.34
2023-05-10T10:44:25.802Z,50.30
2023-05-10T10:45:25.785Z,50.37
2023-05-10T10:46:25.787Z,50.46
2023-05-10T10:47:25.923Z,50.43
2023-05-10T10:48:25.706Z,50.51
2023-05-10T10:49:25.688Z,50.48
2023-05-10T10:50:25.662Z,50.47
2023-05-10T10:51:25.619Z,50.50
2023-05-10T10:52:25.585Z,50.53
2023-05-10T10:53:25.596Z,50.33
2023-05-10T10:54:25.540Z,50.40
2023-05-10T10:55:25.518Z,50.15
2023-05-10T10:56:25.472Z,50.25
2023-05-10T10:57:25.488Z,50.30
2023-05-10T10:58:25.399Z,50.40
2023-05-10T10:59:25.383Z,50.42
2023-05-10T11:00:25.342Z,50.46
2023-05-10T11:01:25.337Z,50.52
2023-05-10T11:02:25.300Z,50.51
2023-05-10T11:03:25.243Z,50.50
2023-05-10T11:04:25.243Z,50.62
2023-05-10T11:05:25.186Z,48.34
2023-05-10T11:06:25.182Z,48.70
2023-05-10T11:07:25.140Z,48.00
2023-05-10T11:08:25.116Z,47.07
2023-05-10T11:09:25.080Z,45.97
2023-05-10T11:10:25.079Z,47.09
2023-05-10T11:11:25.033Z,45.77
2023-05-10T11:12:25.001Z,45.07
2023-05-10T11:13:24.987Z,45.14
2023-05-10T11:14:24.955Z,44.54
2023-05-10T11:15:24.932Z,44.88
2023-05-10T11:16:25.129Z,44.26
2023-05-10T11:17:24.928Z,43.76
2023-05-10T11:18:24.875Z,44.14
2023-05-10T11:19:24.828Z,44.08
2023-05-10T11:20:24.809Z,44.05
2023-05-10T11:21:24.796Z,44.17
2023-05-10T11:22:24.763Z,44.03
2023-05-10T11:23:24.755Z,44.39
2023-05-10T11:24:24.722Z,43.41
2023-05-10T11:25:24.702Z,43.13
2023-05-10T11:26:24.660Z,42.92
2023-05-10T11:27:24.630Z,42.96
2023-05-10T11:28:24.606Z,42.62
2023-05-10T11:29:24.577Z,42.68
2023-05-10T11:30:24.556Z,42.53
2023-05-10T11:31:24.609Z,42.46
2023-05-10T11:32:24.562Z,42.06
2023-05-10T11:33:24.497Z,41.99
2023-05-10T11:34:24.478Z,41.88
2023-05-10T11:35:24.465Z,42.06
2023-05-10T11:36:24.427Z,41.83
2023-05-10T11:37:24.401Z,41.56
2023-05-10T11:38:24.408Z,41.55
2023-05-10T11:39:24.443Z,41.44
2023-05-10T11:40:24.342Z,41.27
2023-05-10T11:41:24.318Z,41.21
2023-05-10T11:42:24.296Z,41.12
2023-05-10T11:43:24.288Z,40.97
2023-05-10T11:44:24.292Z,41.17
2023-05-10T11:45:24.308Z,40.98
2023-05-10T11:46:24.378Z,41.11
2023-05-10T11:47:24.517Z,41.11
2023-05-10T11:48:24.465Z,41.26
2023-05-10T11:49:24.505Z,41.20
2023-05-10T11:50:24.553Z,40.86
2023-05-10T11:51:24.597Z,40.62
2023-05-10T11:52:24.674Z,40.62
2023-05-10T11:53:25.894Z,40.86
2023-05-10T11:54:24.789Z,40.80
2023-05-10T11:55:24.749Z,40.69
2023-05-10T11:56:24.889Z,40.67
2023-05-10T11:57:24.826Z,40.65
2023-05-10T11:58:24.868Z,40.56
2023-05-10T11:59:24.909Z,40.71
2023-05-10T12:00:24.933Z,40.63
2023-05-10T12:01:24.984Z,40.48
2023-05-10T12:02:25.052Z,41.11
2023-05-10T12:03:25.150Z,40.91
2023-05-10T12:04:25.068Z,40.85
2023-05-10T12:05:25.062Z,41.00
2023-05-10T12:06:25.098Z,41.44
2023-05-10T12:07:25.097Z,41.46
2023-05-10T12:08:25.064Z,41.34
2023-05-10T12:09:39.759Z,41.32
2023-05-10T12:10:26.035Z,41.62
2023-05-10T12:11:25.001Z,41.75
2023-05-10T12:12:24.954Z,41.93
2023-05-10T12:13:24.938Z,41.76
2023-05-10T12:14:24.907Z,41.53
2023-05-10T12:15:24.884Z,41.96
2023-05-10T12:16:25.305Z,41.79
2023-05-10T12:17:24.833Z,42.17
2023-05-10T12:18:24.827Z,41.80
2023-05-10T12:19:25.028Z,41.79
2023-05-10T12:20:24.754Z,41.92
2023-05-10T12:21:24.750Z,42.63
2023-05-10T12:22:24.703Z,41.98
2023-05-10T12:23:24.680Z,42.02
2023-05-10T12:24:24.647Z,41.95
2023-05-10T12:25:24.617Z,42.48
2023-05-10T12:26:24.596Z,41.81
2023-05-10T12:27:24.567Z,42.01
2023-05-10T12:28:24.748Z,42.04
2023-05-10T12:29:24.521Z,41.98
2023-05-10T12:30:24.570Z,41.92
2023-05-10T12:31:24.655Z,42.18
2023-05-10T12:32:24.670Z,42.08
2023-05-10T12:33:24.689Z,41.79
2023-05-10T12:34:24.752Z,41.78
2023-05-10T12:35:24.835Z,41.85
2023-05-10T12:36:24.778Z,41.80
2023-05-10T12:37:24.820Z,41.59
2023-05-10T12:38:24.854Z,42.45
2023-05-10T12:39:24.905Z,42.89
2023-05-10T12:40:24.948Z,42.74
2023-05-10T12:41:24.988Z,42.76
2023-05-10T12:42:25.012Z,42.65
2023-05-10T12:43:25.071Z,42.59
2023-05-10T12:44:25.109Z,42.86
2023-05-10T12:45:25.160Z,42.79
2023-05-10T12:46:25.262Z,42.84
2023-05-10T12:47:25.208Z,42.92
2023-05-10T12:48:25.175Z,42.95
2023-05-10T12:49:25.164Z,42.95
2023-05-10T12:50:25.155Z,42.82
2023-05-10T12:51:25.203Z,43.03
2023-05-10T12:52:25.132Z,44.54